sensor_id;sensor_type;location;lat;lon;timestamp;P1;durP1;ratioP1;P2;durP2;ratioP2
86335;SDS011;77070;0.000;0.000;2024-03-17T00:00:41;4.10;;;2.40;;
86335;SDS011;77070;0.000;0.000;2024-03-17T00:03:29;7.40;;;3.30;;
86335;SDS011;77070;0.000;0.000;2024-03-17T00:05:58;5.60;;;3.30;;
86335;SDS011;77070;0.000;0.000;2024-03-17T00:08:26;7.00;;;3.60;;
86335;SDS011;77070;0.000;0.000;2024-03-17T00:10:53;6.00;;;2.80;;
86335;SDS011;77070;0.000;0.000;2024-03-17T00:13:23;6.80;;;3.20;;
86335;SDS011;77070;0.000;0.000;2024-03-17T00:15:51;5.90;;;3.60;;
86335;SDS011;77070;0.000;0.000;2024-03-17T00:18:19;7.50;;;3.50;;
86335;SDS011;77070;0.000;0.000;2024-03-17T00:20:47;9.00;;;3.70;;
86335;SDS011;77070;0.000;0.000;2024-03-17T00:23:15;6.70;;;3.80;;
86335;SDS011;77070;0.000;0.000;2024-03-17T00:25:42;5.30;;;3.00;;
86335;SDS011;77070;0.000;0.000;2024-03-17T00:28:10;5.20;;;2.90;;
86335;SDS011;77070;0.000;0.000;2024-03-17T00:30:38;7.50;;;2.90;;
86335;SDS011;77070;0.000;0.000;2024-03-17T00:33:05;6.60;;;3.50;;
86335;SDS011;77070;0.000;0.000;2024-03-17T00:35:32;11.00;;;3.70;;
86335;SDS011;77070;0.000;0.000;2024-03-17T00:38:00;7.20;;;2.80;;
86335;SDS011;77070;0.000;0.000;2024-03-17T00:40:30;4.70;;;2.90;;
86335;SDS011;77070;0.000;0.000;2024-03-17T00:42:57;6.50;;;3.40;;
86335;SDS011;77070;0.000;0.000;2024-03-17T00:45:24;4.80;;;3.30;;
86335;SDS011;77070;0.000;0.000;2024-03-17T00:48:10;7.90;;;3.30;;
86335;SDS011;77070;0.000;0.000;2024-03-17T00:50:37;6.50;;;3.20;;
86335;SDS011;77070;0.000;0.000;2024-03-17T00:53:04;4.30;;;2.00;;
86335;SDS011;77070;0.000;0.000;2024-03-17T00:55:31;6.00;;;2.60;;
86335;SDS011;77070;0.000;0.000;2024-03-17T00:57:59;6.60;;;2.40;;
86335;SDS011;77070;0.000;0.000;2024-03-17T01:00:26;7.50;;;3.00;;
86335;SDS011;77070;0.000;0.000;2024-03-17T01:02:53;4.30;;;2.60;;
86335;SDS011;77070;0.000;0.000;2024-03-17T01:05:20;5.10;;;1.90;;
86335;SDS011;77070;0.000;0.000;2024-03-17T01:07:47;8.10;;;2.70;;
86335;SDS011;77070;0.000;0.000;2024-03-17T01:10:15;4.10;;;1.70;;
86335;SDS011;77070;0.000;0.000;2024-03-17T01:12:43;6.20;;;1.80;;
86335;SDS011;77070;0.000;0.000;2024-03-17T01:15:10;5.60;;;2.90;;
86335;SDS011;77070;0.000;0.000;2024-03-17T01:17:38;5.10;;;2.30;;
86335;SDS011;77070;0.000;0.000;2024-03-17T01:20:05;6.90;;;2.20;;
86335;SDS011;77070;0.000;0.000;2024-03-17T01:22:33;3.90;;;1.70;;
86335;SDS011;77070;0.000;0.000;2024-03-17T01:25:00;8.20;;;2.30;;
86335;SDS011;77070;0.000;0.000;2024-03-17T01:27:30;5.40;;;2.10;;
86335;SDS011;77070;0.000;0.000;2024-03-17T01:29:57;6.30;;;2.60;;
86335;SDS011;77070;0.000;0.000;2024-03-17T01:32:24;6.50;;;2.50;;
86335;SDS011;77070;0.000;0.000;2024-03-17T01:34:51;4.60;;;2.30;;
86335;SDS011;77070;0.000;0.000;2024-03-17T01:37:18;6.00;;;2.40;;
86335;SDS011;77070;0.000;0.000;2024-03-17T01:39:45;6.80;;;2.10;;
86335;SDS011;77070;0.000;0.000;2024-03-17T01:42:12;6.50;;;2.50;;
86335;SDS011;77070;0.000;0.000;2024-03-17T01:44:40;7.80;;;2.90;;
86335;SDS011;77070;0.000;0.000;2024-03-17T01:47:07;5.30;;;2.80;;
86335;SDS011;77070;0.000;0.000;2024-03-17T01:49:36;4.10;;;2.20;;
86335;SDS011;77070;0.000;0.000;2024-03-17T01:52:03;5.50;;;2.30;;
86335;SDS011;77070;0.000;0.000;2024-03-17T01:54:32;7.00;;;2.30;;
86335;SDS011;77070;0.000;0.000;2024-03-17T01:56:59;4.90;;;2.20;;
86335;SDS011;77070;0.000;0.000;2024-03-17T01:59:27;4.80;;;2.30;;
86335;SDS011;77070;0.000;0.000;2024-03-17T02:01:55;5.90;;;2.60;;
86335;SDS011;77070;0.000;0.000;2024-03-17T02:04:22;6.10;;;2.50;;
86335;SDS011;77070;0.000;0.000;2024-03-17T02:06:49;9.60;;;2.90;;
86335;SDS011;77070;0.000;0.000;2024-03-17T02:09:16;7.10;;;2.80;;
86335;SDS011;77070;0.000;0.000;2024-03-17T02:11:45;6.00;;;2.40;;
86335;SDS011;77070;0.000;0.000;2024-03-17T02:14:12;9.00;;;2.70;;
86335;SDS011;77070;0.000;0.000;2024-03-17T02:16:41;4.50;;;2.30;;
86335;SDS011;77070;0.000;0.000;2024-03-17T02:19:07;10.40;;;4.00;;
86335;SDS011;77070;0.000;0.000;2024-03-17T02:21:35;9.30;;;2.70;;
86335;SDS011;77070;0.000;0.000;2024-03-17T02:24:04;7.00;;;2.90;;
86335;SDS011;77070;0.000;0.000;2024-03-17T02:26:31;7.30;;;3.40;;
86335;SDS011;77070;0.000;0.000;2024-03-17T02:28:58;7.50;;;3.10;;
86335;SDS011;77070;0.000;0.000;2024-03-17T02:31:26;6.30;;;2.20;;
86335;SDS011;77070;0.000;0.000;2024-03-17T02:33:53;7.10;;;2.50;;
86335;SDS011;77070;0.000;0.000;2024-03-17T02:36:20;9.20;;;3.00;;
86335;SDS011;77070;0.000;0.000;2024-03-17T02:38:47;8.10;;;3.00;;
86335;SDS011;77070;0.000;0.000;2024-03-17T02:41:32;9.80;;;3.20;;
86335;SDS011;77070;0.000;0.000;2024-03-17T02:43:59;6.20;;;2.80;;
86335;SDS011;77070;0.000;0.000;2024-03-17T02:46:28;6.20;;;3.20;;
86335;SDS011;77070;0.000;0.000;2024-03-17T02:48:55;7.80;;;3.30;;
86335;SDS011;77070;0.000;0.000;2024-03-17T02:51:22;7.00;;;3.20;;
86335;SDS011;77070;0.000;0.000;2024-03-17T02:53:51;7.60;;;2.70;;
86335;SDS011;77070;0.000;0.000;2024-03-17T02:56:18;5.20;;;1.70;;
86335;SDS011;77070;0.000;0.000;2024-03-17T02:58:46;6.30;;;2.70;;
86335;SDS011;77070;0.000;0.000;2024-03-17T03:01:17;5.80;;;2.90;;
86335;SDS011;77070;0.000;0.000;2024-03-17T03:03:45;4.40;;;1.50;;
86335;SDS011;77070;0.000;0.000;2024-03-17T03:06:13;4.30;;;1.80;;
86335;SDS011;77070;0.000;0.000;2024-03-17T03:08:40;4.80;;;1.70;;
86335;SDS011;77070;0.000;0.000;2024-03-17T03:11:08;6.50;;;2.60;;
86335;SDS011;77070;0.000;0.000;2024-03-17T03:13:39;5.20;;;1.80;;
86335;SDS011;77070;0.000;0.000;2024-03-17T03:16:07;4.40;;;1.80;;
86335;SDS011;77070;0.000;0.000;2024-03-17T03:18:35;5.20;;;2.30;;
86335;SDS011;77070;0.000;0.000;2024-03-17T03:21:03;2.60;;;1.00;;
86335;SDS011;77070;0.000;0.000;2024-03-17T03:23:31;6.80;;;2.60;;
86335;SDS011;77070;0.000;0.000;2024-03-17T03:25:59;5.00;;;2.20;;
86335;SDS011;77070;0.000;0.000;2024-03-17T03:28:31;5.30;;;2.00;;
86335;SDS011;77070;0.000;0.000;2024-03-17T03:31:00;4.60;;;2.10;;
86335;SDS011;77070;0.000;0.000;2024-03-17T03:33:27;6.30;;;2.40;;
86335;SDS011;77070;0.000;0.000;2024-03-17T03:35:54;6.30;;;1.60;;
86335;SDS011;77070;0.000;0.000;2024-03-17T03:38:22;7.50;;;2.00;;
86335;SDS011;77070;0.000;0.000;2024-03-17T03:40:49;5.70;;;2.50;;
86335;SDS011;77070;0.000;0.000;2024-03-17T03:43:18;7.40;;;1.60;;
86335;SDS011;77070;0.000;0.000;2024-03-17T03:45:45;6.30;;;2.20;;
86335;SDS011;77070;0.000;0.000;2024-03-17T03:48:12;7.70;;;1.90;;
86335;SDS011;77070;0.000;0.000;2024-03-17T03:50:39;2.40;;;1.00;;
86335;SDS011;77070;0.000;0.000;2024-03-17T03:53:06;4.60;;;1.80;;
86335;SDS011;77070;0.000;0.000;2024-03-17T03:55:33;4.80;;;1.70;;
86335;SDS011;77070;0.000;0.000;2024-03-17T03:58:00;7.40;;;1.60;;
86335;SDS011;77070;0.000;0.000;2024-03-17T04:00:29;4.70;;;2.00;;
86335;SDS011;77070;0.000;0.000;2024-03-17T04:02:59;11.90;;;2.40;;
86335;SDS011;77070;0.000;0.000;2024-03-17T04:05:27;6.90;;;2.50;;
86335;SDS011;77070;0.000;0.000;2024-03-17T04:07:55;6.50;;;2.50;;
86335;SDS011;77070;0.000;0.000;2024-03-17T04:10:21;3.80;;;1.80;;
86335;SDS011;77070;0.000;0.000;2024-03-17T04:12:51;4.80;;;2.20;;
86335;SDS011;77070;0.000;0.000;2024-03-17T04:15:19;4.10;;;1.30;;
86335;SDS011;77070;0.000;0.000;2024-03-17T04:17:46;5.40;;;1.50;;
86335;SDS011;77070;0.000;0.000;2024-03-17T04:20:13;4.50;;;1.90;;
86335;SDS011;77070;0.000;0.000;2024-03-17T04:22:41;7.30;;;2.20;;
86335;SDS011;77070;0.000;0.000;2024-03-17T04:25:10;6.60;;;2.50;;
86335;SDS011;77070;0.000;0.000;2024-03-17T04:27:39;7.20;;;2.20;;
86335;SDS011;77070;0.000;0.000;2024-03-17T04:30:07;6.10;;;1.50;;
86335;SDS011;77070;0.000;0.000;2024-03-17T04:32:34;5.00;;;1.80;;
86335;SDS011;77070;0.000;0.000;2024-03-17T04:35:01;5.00;;;1.70;;
86335;SDS011;77070;0.000;0.000;2024-03-17T04:37:28;4.10;;;1.20;;
86335;SDS011;77070;0.000;0.000;2024-03-17T04:39:55;8.20;;;2.90;;
86335;SDS011;77070;0.000;0.000;2024-03-17T04:42:24;5.10;;;2.10;;
86335;SDS011;77070;0.000;0.000;2024-03-17T04:44:51;7.90;;;2.00;;
86335;SDS011;77070;0.000;0.000;2024-03-17T04:47:19;7.20;;;1.70;;
86335;SDS011;77070;0.000;0.000;2024-03-17T04:49:47;5.70;;;1.40;;
86335;SDS011;77070;0.000;0.000;2024-03-17T04:52:16;4.20;;;1.30;;
86335;SDS011;77070;0.000;0.000;2024-03-17T04:54:43;9.30;;;2.00;;
86335;SDS011;77070;0.000;0.000;2024-03-17T04:57:10;6.50;;;1.70;;
86335;SDS011;77070;0.000;0.000;2024-03-17T04:59:37;6.10;;;2.00;;
86335;SDS011;77070;0.000;0.000;2024-03-17T05:02:05;8.30;;;1.40;;
86335;SDS011;77070;0.000;0.000;2024-03-17T05:04:32;4.60;;;1.30;;
86335;SDS011;77070;0.000;0.000;2024-03-17T05:06:59;5.80;;;1.90;;
86335;SDS011;77070;0.000;0.000;2024-03-17T05:09:27;5.80;;;1.50;;
86335;SDS011;77070;0.000;0.000;2024-03-17T05:11:54;3.40;;;1.20;;
86335;SDS011;77070;0.000;0.000;2024-03-17T05:14:21;7.50;;;1.50;;
86335;SDS011;77070;0.000;0.000;2024-03-17T05:16:48;6.90;;;1.40;;
86335;SDS011;77070;0.000;0.000;2024-03-17T05:19:19;5.90;;;1.30;;
86335;SDS011;77070;0.000;0.000;2024-03-17T05:21:45;5.70;;;1.10;;
86335;SDS011;77070;0.000;0.000;2024-03-17T05:24:12;4.80;;;1.00;;
86335;SDS011;77070;0.000;0.000;2024-03-17T05:26:39;8.90;;;1.70;;
86335;SDS011;77070;0.000;0.000;2024-03-17T05:29:09;8.40;;;1.80;;
86335;SDS011;77070;0.000;0.000;2024-03-17T05:31:36;4.10;;;1.70;;
86335;SDS011;77070;0.000;0.000;2024-03-17T05:34:08;3.70;;;1.30;;
86335;SDS011;77070;0.000;0.000;2024-03-17T05:36:36;7.30;;;1.20;;
86335;SDS011;77070;0.000;0.000;2024-03-17T05:39:03;6.10;;;1.20;;
86335;SDS011;77070;0.000;0.000;2024-03-17T05:41:31;4.00;;;1.10;;
86335;SDS011;77070;0.000;0.000;2024-03-17T05:43:58;5.20;;;1.40;;
86335;SDS011;77070;0.000;0.000;2024-03-17T05:46:25;6.20;;;1.20;;
86335;SDS011;77070;0.000;0.000;2024-03-17T05:48:53;4.80;;;1.10;;
86335;SDS011;77070;0.000;0.000;2024-03-17T05:51:21;4.90;;;1.40;;
86335;SDS011;77070;0.000;0.000;2024-03-17T05:53:48;12.30;;;1.70;;
86335;SDS011;77070;0.000;0.000;2024-03-17T05:56:15;6.70;;;1.20;;
86335;SDS011;77070;0.000;0.000;2024-03-17T05:58:42;6.10;;;1.30;;
86335;SDS011;77070;0.000;0.000;2024-03-17T06:01:09;10.40;;;2.20;;
86335;SDS011;77070;0.000;0.000;2024-03-17T06:03:38;7.30;;;1.50;;
86335;SDS011;77070;0.000;0.000;2024-03-17T06:06:05;3.80;;;1.30;;
86335;SDS011;77070;0.000;0.000;2024-03-17T06:08:39;5.50;;;1.20;;
86335;SDS011;77070;0.000;0.000;2024-03-17T06:11:06;7.00;;;1.60;;
86335;SDS011;77070;0.000;0.000;2024-03-17T06:13:34;2.70;;;1.00;;
86335;SDS011;77070;0.000;0.000;2024-03-17T06:16:02;4.50;;;1.50;;
86335;SDS011;77070;0.000;0.000;2024-03-17T06:18:30;5.40;;;1.50;;
86335;SDS011;77070;0.000;0.000;2024-03-17T06:20:58;8.80;;;1.70;;
86335;SDS011;77070;0.000;0.000;2024-03-17T06:23:25;5.90;;;1.40;;
86335;SDS011;77070;0.000;0.000;2024-03-17T06:25:56;5.50;;;1.60;;
86335;SDS011;77070;0.000;0.000;2024-03-17T06:28:23;7.80;;;1.40;;
86335;SDS011;77070;0.000;0.000;2024-03-17T06:30:57;7.50;;;1.70;;
86335;SDS011;77070;0.000;0.000;2024-03-17T06:33:26;7.00;;;1.60;;
86335;SDS011;77070;0.000;0.000;2024-03-17T06:35:54;7.90;;;1.30;;
86335;SDS011;77070;0.000;0.000;2024-03-17T06:38:22;10.40;;;1.50;;
86335;SDS011;77070;0.000;0.000;2024-03-17T06:40:50;5.50;;;1.30;;
86335;SDS011;77070;0.000;0.000;2024-03-17T06:43:18;6.90;;;1.70;;
86335;SDS011;77070;0.000;0.000;2024-03-17T06:48:24;4.60;;;1.60;;
86335;SDS011;77070;0.000;0.000;2024-03-17T06:50:52;6.70;;;1.40;;
86335;SDS011;77070;0.000;0.000;2024-03-17T06:53:23;7.70;;;1.40;;
86335;SDS011;77070;0.000;0.000;2024-03-17T06:58:23;6.40;;;1.20;;
86335;SDS011;77070;0.000;0.000;2024-03-17T07:00:54;4.60;;;1.20;;
86335;SDS011;77070;0.000;0.000;2024-03-17T07:03:26;5.70;;;1.40;;
86335;SDS011;77070;0.000;0.000;2024-03-17T07:06:03;4.60;;;1.00;;
86335;SDS011;77070;0.000;0.000;2024-03-17T07:08:31;3.20;;;1.00;;
86335;SDS011;77070;0.000;0.000;2024-03-17T07:11:02;5.00;;;1.20;;
86335;SDS011;77070;0.000;0.000;2024-03-17T07:13:34;5.90;;;1.40;;
86335;SDS011;77070;0.000;0.000;2024-03-17T07:18:32;4.90;;;1.50;;
86335;SDS011;77070;0.000;0.000;2024-03-17T07:21:01;3.70;;;0.90;;
86335;SDS011;77070;0.000;0.000;2024-03-17T07:23:30;5.10;;;1.70;;
86335;SDS011;77070;0.000;0.000;2024-03-17T07:25:59;6.80;;;1.00;;
86335;SDS011;77070;0.000;0.000;2024-03-17T07:28:29;4.10;;;1.00;;
86335;SDS011;77070;0.000;0.000;2024-03-17T07:30:59;3.70;;;1.10;;
86335;SDS011;77070;0.000;0.000;2024-03-17T07:33:27;6.50;;;1.30;;
86335;SDS011;77070;0.000;0.000;2024-03-17T07:35:57;3.70;;;0.90;;
86335;SDS011;77070;0.000;0.000;2024-03-17T07:38:29;4.40;;;1.30;;
86335;SDS011;77070;0.000;0.000;2024-03-17T07:41:05;2.70;;;0.80;;
86335;SDS011;77070;0.000;0.000;2024-03-17T07:43:34;3.10;;;1.00;;
86335;SDS011;77070;0.000;0.000;2024-03-17T07:48:35;2.20;;;0.50;;
86335;SDS011;77070;0.000;0.000;2024-03-17T07:51:07;5.90;;;0.90;;
86335;SDS011;77070;0.000;0.000;2024-03-17T07:53:39;3.40;;;0.90;;
86335;SDS011;77070;0.000;0.000;2024-03-17T07:56:11;2.60;;;0.80;;
86335;SDS011;77070;0.000;0.000;2024-03-17T07:58:40;2.10;;;0.70;;
86335;SDS011;77070;0.000;0.000;2024-03-17T08:01:09;5.20;;;1.10;;
86335;SDS011;77070;0.000;0.000;2024-03-17T08:03:38;3.50;;;1.00;;
86335;SDS011;77070;0.000;0.000;2024-03-17T08:06:07;3.00;;;0.70;;
86335;SDS011;77070;0.000;0.000;2024-03-17T08:08:34;4.40;;;1.00;;
86335;SDS011;77070;0.000;0.000;2024-03-17T08:11:01;5.30;;;1.10;;
86335;SDS011;77070;0.000;0.000;2024-03-17T08:13:32;3.90;;;0.80;;
86335;SDS011;77070;0.000;0.000;2024-03-17T08:16:02;6.00;;;1.20;;
86335;SDS011;77070;0.000;0.000;2024-03-17T08:18:32;3.40;;;0.80;;
86335;SDS011;77070;0.000;0.000;2024-03-17T08:21:03;3.80;;;0.70;;
86335;SDS011;77070;0.000;0.000;2024-03-17T08:23:33;3.50;;;1.00;;
86335;SDS011;77070;0.000;0.000;2024-03-17T08:26:03;3.90;;;1.30;;
86335;SDS011;77070;0.000;0.000;2024-03-17T08:28:30;4.40;;;1.00;;
86335;SDS011;77070;0.000;0.000;2024-03-17T08:30:57;2.60;;;0.90;;
86335;SDS011;77070;0.000;0.000;2024-03-17T08:33:26;4.00;;;1.10;;
86335;SDS011;77070;0.000;0.000;2024-03-17T08:35:54;4.40;;;1.30;;
86335;SDS011;77070;0.000;0.000;2024-03-17T08:38:22;2.70;;;0.90;;
86335;SDS011;77070;0.000;0.000;2024-03-17T08:40:50;2.20;;;1.00;;
86335;SDS011;77070;0.000;0.000;2024-03-17T08:43:18;3.30;;;0.60;;
86335;SDS011;77070;0.000;0.000;2024-03-17T08:45:59;1.40;;;0.70;;
86335;SDS011;77070;0.000;0.000;2024-03-17T08:48:32;4.80;;;1.00;;
86335;SDS011;77070;0.000;0.000;2024-03-17T08:51:03;1.80;;;0.70;;
86335;SDS011;77070;0.000;0.000;2024-03-17T08:53:32;2.10;;;0.80;;
86335;SDS011;77070;0.000;0.000;2024-03-17T08:55:59;2.30;;;0.90;;
86335;SDS011;77070;0.000;0.000;2024-03-17T08:58:27;5.10;;;0.80;;
86335;SDS011;77070;0.000;0.000;2024-03-17T09:00:54;4.60;;;1.00;;
86335;SDS011;77070;0.000;0.000;2024-03-17T09:03:23;4.40;;;1.20;;
86335;SDS011;77070;0.000;0.000;2024-03-17T09:05:51;1.90;;;0.60;;
86335;SDS011;77070;0.000;0.000;2024-03-17T09:08:22;3.80;;;1.10;;
86335;SDS011;77070;0.000;0.000;2024-03-17T09:13:20;2.30;;;0.80;;
86335;SDS011;77070;0.000;0.000;2024-03-17T09:18:32;2.60;;;0.80;;
86335;SDS011;77070;0.000;0.000;2024-03-17T09:21:02;2.90;;;1.00;;
86335;SDS011;77070;0.000;0.000;2024-03-17T09:23:34;3.40;;;0.80;;
86335;SDS011;77070;0.000;0.000;2024-03-17T09:26:02;3.50;;;0.90;;
86335;SDS011;77070;0.000;0.000;2024-03-17T09:28:38;3.20;;;0.90;;
86335;SDS011;77070;0.000;0.000;2024-03-17T09:31:05;3.40;;;1.00;;
86335;SDS011;77070;0.000;0.000;2024-03-17T09:36:03;3.00;;;1.20;;
86335;SDS011;77070;0.000;0.000;2024-03-17T09:38:35;4.00;;;1.60;;
86335;SDS011;77070;0.000;0.000;2024-03-17T09:41:03;4.60;;;1.00;;
86335;SDS011;77070;0.000;0.000;2024-03-17T09:43:34;3.00;;;1.20;;
86335;SDS011;77070;0.000;0.000;2024-03-17T09:46:02;4.20;;;0.90;;
86335;SDS011;77070;0.000;0.000;2024-03-17T09:48:30;3.70;;;1.40;;
86335;SDS011;77070;0.000;0.000;2024-03-17T09:50:59;4.80;;;1.00;;
86335;SDS011;77070;0.000;0.000;2024-03-17T09:53:31;3.10;;;0.80;;
86335;SDS011;77070;0.000;0.000;2024-03-17T09:56:09;2.30;;;0.80;;
86335;SDS011;77070;0.000;0.000;2024-03-17T09:58:40;6.10;;;1.00;;
86335;SDS011;77070;0.000;0.000;2024-03-17T10:01:07;4.10;;;0.70;;
86335;SDS011;77070;0.000;0.000;2024-03-17T10:03:41;5.20;;;0.90;;
86335;SDS011;77070;0.000;0.000;2024-03-17T10:06:19;2.90;;;0.90;;
86335;SDS011;77070;0.000;0.000;2024-03-17T10:08:48;1.50;;;0.60;;
86335;SDS011;77070;0.000;0.000;2024-03-17T10:11:17;2.20;;;0.80;;
86335;SDS011;77070;0.000;0.000;2024-03-17T10:13:46;3.00;;;0.80;;
86335;SDS011;77070;0.000;0.000;2024-03-17T10:16:26;3.70;;;0.70;;
86335;SDS011;77070;0.000;0.000;2024-03-17T10:19:06;2.70;;;0.80;;
86335;SDS011;77070;0.000;0.000;2024-03-17T10:21:43;2.10;;;0.80;;
86335;SDS011;77070;0.000;0.000;2024-03-17T10:24:24;2.50;;;0.80;;
86335;SDS011;77070;0.000;0.000;2024-03-17T10:26:53;2.70;;;0.80;;
86335;SDS011;77070;0.000;0.000;2024-03-17T10:31:54;1.10;;;0.60;;
86335;SDS011;77070;0.000;0.000;2024-03-17T10:34:23;1.70;;;0.60;;
86335;SDS011;77070;0.000;0.000;2024-03-17T10:39:25;2.30;;;0.50;;
86335;SDS011;77070;0.000;0.000;2024-03-17T10:42:00;2.40;;;0.80;;
86335;SDS011;77070;0.000;0.000;2024-03-17T10:44:31;2.70;;;0.70;;
86335;SDS011;77070;0.000;0.000;2024-03-17T10:47:03;1.80;;;0.90;;
86335;SDS011;77070;0.000;0.000;2024-03-17T10:49:55;3.40;;;1.60;;
86335;SDS011;77070;0.000;0.000;2024-03-17T10:52:23;1.90;;;0.70;;
86335;SDS011;77070;0.000;0.000;2024-03-17T10:55:02;4.50;;;0.90;;
86335;SDS011;77070;0.000;0.000;2024-03-17T10:58:35;1.50;;;0.50;;
86335;SDS011;77070;0.000;0.000;2024-03-17T11:01:05;1.30;;;0.50;;
86335;SDS011;77070;0.000;0.000;2024-03-17T11:03:35;3.20;;;0.90;;
86335;SDS011;77070;0.000;0.000;2024-03-17T11:06:03;3.20;;;0.90;;
86335;SDS011;77070;0.000;0.000;2024-03-17T11:08:32;1.70;;;0.60;;
86335;SDS011;77070;0.000;0.000;2024-03-17T11:11:01;1.70;;;0.70;;
86335;SDS011;77070;0.000;0.000;2024-03-17T11:13:52;2.20;;;0.70;;
86335;SDS011;77070;0.000;0.000;2024-03-17T11:16:38;5.00;;;1.70;;
86335;SDS011;77070;0.000;0.000;2024-03-17T11:19:08;1.60;;;0.50;;
86335;SDS011;77070;0.000;0.000;2024-03-17T11:21:43;2.30;;;0.60;;
86335;SDS011;77070;0.000;0.000;2024-03-17T11:24:20;2.20;;;0.80;;
86335;SDS011;77070;0.000;0.000;2024-03-17T11:26:47;4.10;;;1.00;;
86335;SDS011;77070;0.000;0.000;2024-03-17T11:29:27;4.50;;;1.00;;
86335;SDS011;77070;0.000;0.000;2024-03-17T11:31:56;3.80;;;1.00;;
86335;SDS011;77070;0.000;0.000;2024-03-17T11:34:36;3.10;;;0.80;;
86335;SDS011;77070;0.000;0.000;2024-03-17T11:37:07;2.70;;;0.70;;
86335;SDS011;77070;0.000;0.000;2024-03-17T11:40:22;3.40;;;0.80;;
86335;SDS011;77070;0.000;0.000;2024-03-17T11:43:00;3.90;;;0.90;;
86335;SDS011;77070;0.000;0.000;2024-03-17T11:45:28;2.50;;;0.60;;
86335;SDS011;77070;0.000;0.000;2024-03-17T11:47:55;3.30;;;0.90;;
86335;SDS011;77070;0.000;0.000;2024-03-17T11:50:22;5.80;;;1.00;;
86335;SDS011;77070;0.000;0.000;2024-03-17T11:52:59;3.50;;;0.90;;
86335;SDS011;77070;0.000;0.000;2024-03-17T11:55:26;2.90;;;0.90;;
86335;SDS011;77070;0.000;0.000;2024-03-17T11:58:01;2.50;;;0.80;;
86335;SDS011;77070;0.000;0.000;2024-03-17T12:00:43;1.50;;;0.70;;
86335;SDS011;77070;0.000;0.000;2024-03-17T12:03:18;2.90;;;0.80;;
86335;SDS011;77070;0.000;0.000;2024-03-17T12:05:45;2.30;;;0.70;;
86335;SDS011;77070;0.000;0.000;2024-03-17T12:08:20;1.30;;;0.60;;
86335;SDS011;77070;0.000;0.000;2024-03-17T12:10:47;5.40;;;1.00;;
86335;SDS011;77070;0.000;0.000;2024-03-17T12:13:18;2.90;;;0.90;;
86335;SDS011;77070;0.000;0.000;2024-03-17T12:15:45;1.40;;;0.80;;
86335;SDS011;77070;0.000;0.000;2024-03-17T12:18:19;3.80;;;1.80;;
86335;SDS011;77070;0.000;0.000;2024-03-17T12:20:47;1.70;;;0.70;;
86335;SDS011;77070;0.000;0.000;2024-03-17T12:23:15;2.40;;;0.90;;
86335;SDS011;77070;0.000;0.000;2024-03-17T12:25:47;2.40;;;0.80;;
86335;SDS011;77070;0.000;0.000;2024-03-17T12:28:18;2.50;;;0.70;;
86335;SDS011;77070;0.000;0.000;2024-03-17T12:30:46;1.30;;;0.70;;
86335;SDS011;77070;0.000;0.000;2024-03-17T12:33:13;1.50;;;0.50;;
86335;SDS011;77070;0.000;0.000;2024-03-17T12:35:40;1.50;;;0.70;;
86335;SDS011;77070;0.000;0.000;2024-03-17T12:38:22;1.70;;;0.80;;
86335;SDS011;77070;0.000;0.000;2024-03-17T12:40:49;3.60;;;0.80;;
86335;SDS011;77070;0.000;0.000;2024-03-17T12:43:18;5.60;;;1.10;;
86335;SDS011;77070;0.000;0.000;2024-03-17T12:45:45;3.10;;;0.80;;
86335;SDS011;77070;0.000;0.000;2024-03-17T12:48:13;3.50;;;1.00;;
86335;SDS011;77070;0.000;0.000;2024-03-17T12:50:45;6.30;;;1.00;;
86335;SDS011;77070;0.000;0.000;2024-03-17T12:53:16;3.70;;;1.00;;
86335;SDS011;77070;0.000;0.000;2024-03-17T12:55:52;2.10;;;0.90;;
86335;SDS011;77070;0.000;0.000;2024-03-17T12:58:38;2.40;;;0.60;;
86335;SDS011;77070;0.000;0.000;2024-03-17T13:01:24;6.30;;;0.90;;
86335;SDS011;77070;0.000;0.000;2024-03-17T13:03:51;2.80;;;1.00;;
86335;SDS011;77070;0.000;0.000;2024-03-17T13:06:22;5.20;;;1.50;;
86335;SDS011;77070;0.000;0.000;2024-03-17T13:08:53;3.20;;;1.40;;
86335;SDS011;77070;0.000;0.000;2024-03-17T13:11:20;3.40;;;1.20;;
86335;SDS011;77070;0.000;0.000;2024-03-17T13:13:47;3.60;;;1.20;;
86335;SDS011;77070;0.000;0.000;2024-03-17T13:16:16;3.30;;;1.20;;
86335;SDS011;77070;0.000;0.000;2024-03-17T13:18:44;3.70;;;1.40;;
86335;SDS011;77070;0.000;0.000;2024-03-17T13:21:11;2.30;;;1.00;;
86335;SDS011;77070;0.000;0.000;2024-03-17T13:23:41;2.50;;;1.20;;
86335;SDS011;77070;0.000;0.000;2024-03-17T13:26:08;3.20;;;1.00;;
86335;SDS011;77070;0.000;0.000;2024-03-17T13:28:35;2.30;;;0.90;;
86335;SDS011;77070;0.000;0.000;2024-03-17T13:31:02;5.30;;;1.10;;
86335;SDS011;77070;0.000;0.000;2024-03-17T13:33:31;3.70;;;1.20;;
86335;SDS011;77070;0.000;0.000;2024-03-17T13:35:59;2.90;;;1.10;;
86335;SDS011;77070;0.000;0.000;2024-03-17T13:38:26;2.80;;;1.00;;
86335;SDS011;77070;0.000;0.000;2024-03-17T13:40:53;4.50;;;1.10;;
86335;SDS011;77070;0.000;0.000;2024-03-17T13:43:20;2.70;;;1.10;;
86335;SDS011;77070;0.000;0.000;2024-03-17T13:45:47;2.60;;;1.30;;
86335;SDS011;77070;0.000;0.000;2024-03-17T13:48:16;2.40;;;0.90;;
86335;SDS011;77070;0.000;0.000;2024-03-17T13:50:43;3.30;;;1.20;;
86335;SDS011;77070;0.000;0.000;2024-03-17T13:53:11;3.20;;;1.00;;
86335;SDS011;77070;0.000;0.000;2024-03-17T13:55:41;3.70;;;1.00;;
86335;SDS011;77070;0.000;0.000;2024-03-17T13:58:09;4.00;;;1.50;;
86335;SDS011;77070;0.000;0.000;2024-03-17T14:00:43;3.70;;;1.00;;
86335;SDS011;77070;0.000;0.000;2024-03-17T14:03:30;3.20;;;1.10;;
86335;SDS011;77070;0.000;0.000;2024-03-17T14:06:03;3.90;;;1.30;;
86335;SDS011;77070;0.000;0.000;2024-03-17T14:08:31;3.00;;;1.40;;
86335;SDS011;77070;0.000;0.000;2024-03-17T14:11:05;7.20;;;1.50;;
86335;SDS011;77070;0.000;0.000;2024-03-17T14:17:01;5.40;;;1.70;;
86335;SDS011;77070;0.000;0.000;2024-03-17T14:19:50;4.00;;;1.20;;
86335;SDS011;77070;0.000;0.000;2024-03-17T14:22:24;5.60;;;1.30;;
86335;SDS011;77070;0.000;0.000;2024-03-17T14:24:56;4.90;;;1.40;;
86335;SDS011;77070;0.000;0.000;2024-03-17T14:27:23;5.10;;;1.60;;
86335;SDS011;77070;0.000;0.000;2024-03-17T14:29:54;6.10;;;1.80;;
86335;SDS011;77070;0.000;0.000;2024-03-17T14:32:21;4.50;;;1.70;;
86335;SDS011;77070;0.000;0.000;2024-03-17T14:34:48;3.20;;;1.60;;
86335;SDS011;77070;0.000;0.000;2024-03-17T14:37:15;2.30;;;1.20;;
86335;SDS011;77070;0.000;0.000;2024-03-17T14:39:42;4.60;;;1.40;;
86335;SDS011;77070;0.000;0.000;2024-03-17T14:42:10;4.80;;;1.50;;
86335;SDS011;77070;0.000;0.000;2024-03-17T14:44:37;5.00;;;1.50;;
86335;SDS011;77070;0.000;0.000;2024-03-17T14:47:04;3.70;;;1.40;;
86335;SDS011;77070;0.000;0.000;2024-03-17T14:49:33;4.00;;;1.30;;
86335;SDS011;77070;0.000;0.000;2024-03-17T14:52:00;4.80;;;1.60;;
86335;SDS011;77070;0.000;0.000;2024-03-17T14:54:29;3.70;;;1.30;;
86335;SDS011;77070;0.000;0.000;2024-03-17T14:56:56;3.60;;;1.40;;
86335;SDS011;77070;0.000;0.000;2024-03-17T14:59:24;3.50;;;1.80;;
86335;SDS011;77070;0.000;0.000;2024-03-17T15:01:51;4.20;;;1.10;;
86335;SDS011;77070;0.000;0.000;2024-03-17T15:04:18;4.50;;;1.10;;
86335;SDS011;77070;0.000;0.000;2024-03-17T15:06:45;3.70;;;1.20;;
86335;SDS011;77070;0.000;0.000;2024-03-17T15:09:13;4.20;;;1.40;;
86335;SDS011;77070;0.000;0.000;2024-03-17T15:11:42;3.40;;;1.60;;
86335;SDS011;77070;0.000;0.000;2024-03-17T15:14:09;8.40;;;1.50;;
86335;SDS011;77070;0.000;0.000;2024-03-17T15:16:37;3.00;;;1.40;;
86335;SDS011;77070;0.000;0.000;2024-03-17T15:19:08;4.20;;;1.30;;
86335;SDS011;77070;0.000;0.000;2024-03-17T15:21:35;5.10;;;1.50;;
86335;SDS011;77070;0.000;0.000;2024-03-17T15:24:03;4.60;;;1.50;;
86335;SDS011;77070;0.000;0.000;2024-03-17T15:26:30;4.60;;;1.50;;
86335;SDS011;77070;0.000;0.000;2024-03-17T15:28:57;4.30;;;1.10;;
86335;SDS011;77070;0.000;0.000;2024-03-17T15:31:25;2.50;;;0.90;;
86335;SDS011;77070;0.000;0.000;2024-03-17T15:33:52;2.50;;;0.80;;
86335;SDS011;77070;0.000;0.000;2024-03-17T15:36:19;2.80;;;1.30;;
86335;SDS011;77070;0.000;0.000;2024-03-17T15:38:49;3.40;;;1.00;;
86335;SDS011;77070;0.000;0.000;2024-03-17T15:41:16;1.60;;;0.90;;